Time;durP1;ratioP1;P1;durP2;ratioP2;P2;SDS_P1;SDS_P2;PMS_P1;PMS_P2;Temp;Humidity;BMP_temperature;BMP_pressure;BME280_temperature;BME280_humidity;BME280_pressure;Samples;Min_cycle;Max_cycle;Signal;HPM_P1;HPM_P2
2021/12/31 00:00:00;;;;;;;0.60;0.10;;;14.00;1.00;;;;;;5094524;28;20784;-75
2021/12/31 00:02:28;;;;;;;0.60;0.10;;;14.00;1.00;;;;;;5093132;28;20466;-75
2021/12/31 00:04:56;;;;;;;0.60;0.10;;;14.00;1.00;;;;;;5092420;28;20438;-76
2021/12/31 00:07:25;;;;;;;0.60;0.10;;;14.00;1.00;;;;;;5104430;28;20475;-76
2021/12/31 00:09:59;;;;;;;0.60;0.10;;;14.10;1.00;;;;;;5102165;28;20939;-75
2021/12/31 00:12:27;;;;;;;0.60;0.10;;;14.10;1.00;;;;;;5094218;28;20473;-75
2021/12/31 00:14:55;;;;;;;0.60;0.20;;;14.10;1.00;;;;;;5093631;28;20943;-75
2021/12/31 00:17:24;;;;;;;0.60;0.10;;;14.10;1.00;;;;;;5094342;28;20445;-75
2021/12/31 00:20:00;;;;;;;0.60;0.10;;;14.10;1.00;;;;;;5094529;28;20435;-74
2021/12/31 00:25:15;;;;;;;0.60;0.10;;;14.10;1.00;;;;;;5093501;28;20952;-75
2021/12/31 00:27:43;;;;;;;0.60;0.10;;;14.10;1.00;;;;;;5092671;28;20478;-75
2021/12/31 00:30:11;;;;;;;0.60;0.10;;;14.10;1.00;;;;;;5093664;28;20822;-75
2021/12/31 00:32:39;;;;;;;0.60;0.10;;;14.10;1.00;;;;;;5093692;28;20486;-75
2021/12/31 00:35:08;;;;;;;0.60;0.10;;;14.10;1.00;;;;;;5093848;28;20541;-75
2021/12/31 00:37:38;;;;;;;0.60;0.10;;;14.20;1.00;;;;;;5093544;28;20441;-74
2021/12/31 00:40:09;;;;;;;0.60;0.10;;;14.10;1.00;;;;;;5093906;28;20437;-74
2021/12/31 00:42:38;;;;;;;0.60;0.10;;;14.20;1.00;;;;;;5093079;28;20461;-75
2021/12/31 00:45:09;;;;;;;0.60;0.10;;;14.10;1.00;;;;;;5100057;28;20966;-75
2021/12/31 00:47:37;;;;;;;0.60;0.10;;;14.20;1.00;;;;;;5094708;28;20535;-75
2021/12/31 00:50:06;;;;;;;0.60;0.10;;;14.20;1.00;;;;;;5073169;28;20447;-74
2021/12/31 00:52:35;;;;;;;0.60;0.10;;;14.10;1.00;;;;;;5072678;28;20469;-75
2021/12/31 00:55:03;;;;;;;0.60;0.10;;;14.10;1.00;;;;;;5091705;28;20442;-75
2021/12/31 00:57:31;;;;;;;0.60;0.10;;;14.10;1.00;;;;;;5113454;28;20434;-74
2021/12/31 01:00:01;;;;;;;0.60;0.30;;;14.00;1.00;;;;;;5113318;28;20939;-74
2021/12/31 01:02:29;;;;;;;0.60;0.10;;;14.00;1.00;;;;;;5113318;28;20476;-74
2021/12/31 01:04:58;;;;;;;0.60;0.10;;;14.00;1.00;;;;;;5104616;28;21022;-74
2021/12/31 01:07:27;;;;;;;0.60;0.10;;;13.90;1.00;;;;;;5093091;28;20474;-74
2021/12/31 01:09:56;;;;;;;0.60;0.10;;;14.00;1.00;;;;;;5077049;28;20448;-74
2021/12/31 01:12:25;;;;;;;0.60;0.10;;;14.00;1.00;;;;;;5074255;28;20493;-74
2021/12/31 01:14:58;;;;;;;0.60;0.10;;;14.00;1.00;;;;;;5086752;28;20954;-74
2021/12/31 01:17:44;;;;;;;0.60;0.10;;;14.10;1.00;;;;;;5094685;28;20434;-74
2021/12/31 01:20:14;;;;;;;0.60;0.10;;;14.00;1.00;;;;;;5095477;28;20446;-75
2021/12/31 01:22:42;;;;;;;0.60;0.10;;;14.00;1.00;;;;;;5093273;28;21028;-74
2021/12/31 01:25:10;;;;;;;0.60;0.10;;;14.00;1.00;;;;;;5092891;28;20423;-75
2021/12/31 01:27:39;;;;;;;0.60;0.10;;;13.90;1.00;;;;;;5092661;28;20487;-75
2021/12/31 01:30:10;;;;;;;0.90;0.50;;;13.90;1.00;;;;;;5092579;28;20452;-75
2021/12/31 01:32:39;;;;;;;0.60;0.20;;;13.90;1.00;;;;;;5097560;28;20459;-75
2021/12/31 01:35:08;;;;;;;0.60;0.10;;;13.90;1.00;;;;;;5099260;28;20462;-75
2021/12/31 01:37:36;;;;;;;0.70;0.30;;;13.90;1.00;;;;;;5094214;28;20460;-74
2021/12/31 01:40:05;;;;;;;0.60;0.10;;;13.90;1.00;;;;;;5093274;28;20956;-75
2021/12/31 01:42:33;;;;;;;0.60;0.20;;;13.80;1.00;;;;;;5098226;28;20476;-74
2021/12/31 01:45:06;;;;;;;0.60;0.20;;;13.80;1.00;;;;;;5116620;28;20439;-74
2021/12/31 01:47:54;;;;;;;0.70;0.30;;;13.80;1.00;;;;;;5117556;28;20478;-74
2021/12/31 01:50:25;;;;;;;0.70;0.27;;;13.80;1.00;;;;;;5116991;28;20813;-74
2021/12/31 01:52:53;;;;;;;0.60;0.17;;;13.80;1.00;;;;;;5109108;28;20468;-74
2021/12/31 01:55:23;;;;;;;0.60;0.10;;;13.80;1.00;;;;;;5095404;28;20947;-74
2021/12/31 01:57:52;;;;;;;0.60;0.10;;;13.80;1.00;;;;;;5094650;28;20442;-73
2021/12/31 02:00:20;;;;;;;0.60;0.20;;;13.80;1.00;;;;;;5093125;28;20931;-73
2021/12/31 02:02:50;;;;;;;0.60;0.20;;;13.80;1.00;;;;;;5098810;28;20472;-74
2021/12/31 02:05:18;;;;;;;0.60;0.10;;;13.80;1.00;;;;;;5113882;28;20443;-74
2021/12/31 02:07:47;;;;;;;0.80;0.30;;;13.80;1.00;;;;;;5113163;28;20560;-75
2021/12/31 02:10:15;;;;;;;0.60;0.10;;;13.80;1.00;;;;;;5113467;28;20443;-75
2021/12/31 02:12:46;;;;;;;0.60;0.20;;;13.90;1.00;;;;;;5109761;28;20532;-75
2021/12/31 02:15:15;;;;;;;0.60;0.20;;;13.90;1.00;;;;;;5093136;28;20990;-74
2021/12/31 02:17:44;;;;;;;0.70;0.30;;;13.90;1.00;;;;;;5093892;28;20449;-74
2021/12/31 02:20:14;;;;;;;0.60;0.10;;;13.90;1.00;;;;;;5094455;28;20473;-73
2021/12/31 02:22:50;;;;;;;0.60;0.10;;;13.90;1.00;;;;;;5098640;28;21019;-73
2021/12/31 02:25:19;;;;;;;0.60;0.10;;;13.90;1.00;;;;;;5115009;28;20448;-76
2021/12/31 02:27:47;;;;;;;0.60;0.10;;;13.90;1.00;;;;;;5115485;28;20481;-75
2021/12/31 02:30:15;;;;;;;0.60;0.10;;;13.90;1.00;;;;;;5113863;28;20947;-75
2021/12/31 02:32:43;;;;;;;1.67;1.57;;;13.90;1.00;;;;;;5111903;28;20473;-75
2021/12/31 02:35:13;;;;;;;0.60;0.10;;;13.90;1.00;;;;;;5112620;28;20436;-74
2021/12/31 02:37:41;;;;;;;0.60;0.10;;;13.90;1.00;;;;;;5097279;28;20445;-74
2021/12/31 02:40:13;;;;;;;0.60;0.10;;;13.90;1.00;;;;;;5073254;28;20450;-74
2021/12/31 02:42:41;;;;;;;0.60;0.10;;;13.90;1.00;;;;;;5080028;28;20457;-75
2021/12/31 02:45:11;;;;;;;0.60;0.10;;;13.90;1.00;;;;;;5115441;28;20453;-74
2021/12/31 02:47:44;;;;;;;3.77;0.63;;;13.90;1.00;;;;;;5114383;28;20875;-74
2021/12/31 02:50:16;;;;;;;0.60;0.10;;;14.00;1.00;;;;;;5116144;28;20439;-74
2021/12/31 02:52:45;;;;;;;0.60;0.20;;;13.90;1.00;;;;;;5116691;28;20494;-74
2021/12/31 02:55:13;;;;;;;0.60;0.10;;;13.90;1.00;;;;;;5100399;28;20450;-74
2021/12/31 02:57:42;;;;;;;0.60;0.30;;;13.90;1.00;;;;;;5097790;28;21081;-74
2021/12/31 03:00:11;;;;;;;0.60;0.10;;;13.90;1.00;;;;;;5096832;28;20423;-73
2021/12/31 03:02:39;;;;;;;0.60;0.10;;;13.90;1.00;;;;;;5094589;28;20478;-75
2021/12/31 03:05:09;;;;;;;0.60;0.10;;;13.90;1.00;;;;;;5115307;28;20449;-74
2021/12/31 03:07:39;;;;;;;0.80;0.30;;;14.00;1.00;;;;;;5115007;28;20441;-74
2021/12/31 03:10:08;;;;;;;0.60;0.10;;;14.00;1.00;;;;;;5115176;28;20443;-74
2021/12/31 03:12:39;;;;;;;0.60;0.13;;;14.00;1.00;;;;;;5115912;28;20479;-75
2021/12/31 03:15:09;;;;;;;0.70;0.20;;;14.00;1.00;;;;;;5112554;28;20451;-75
2021/12/31 03:17:38;;;;;;;0.60;0.20;;;14.00;1.00;;;;;;5115203;28;20525;-75
2021/12/31 03:20:12;;;;;;;0.60;0.10;;;14.00;1.00;;;;;;5115051;28;20438;-74
2021/12/31 03:22:42;;;;;;;0.60;0.10;;;13.90;1.00;;;;;;5114873;28;20473;-75
2021/12/31 03:25:11;;;;;;;0.60;0.10;;;14.90;1.00;;;;;;5074401;28;20438;-74
2021/12/31 03:27:40;;;;;;;8.80;8.43;;;14.00;1.00;;;;;;5074613;28;20439;-75
2021/12/31 03:30:10;;;;;;;0.60;0.10;;;14.00;1.00;;;;;;5074375;28;20440;-73
2021/12/31 03:32:38;;;;;;;0.60;0.10;;;14.10;1.00;;;;;;5074471;28;20462;-76
2021/12/31 03:35:06;;;;;;;0.60;0.10;;;14.10;1.00;;;;;;5093546;28;20793;-73
2021/12/31 03:37:34;;;;;;;0.60;0.10;;;14.10;1.00;;;;;;5094821;28;21141;-74
2021/12/31 03:40:04;;;;;;;0.60;0.10;;;14.10;1.00;;;;;;5095134;28;20521;-75
2021/12/31 03:42:32;;;;;;;0.60;0.10;;;14.10;1.00;;;;;;5094719;28;20462;-75
2021/12/31 03:45:00;;;;;;;0.60;0.10;;;14.10;1.00;;;;;;5094192;28;20446;-73
2021/12/31 03:47:28;;;;;;;0.60;0.10;;;14.10;1.00;;;;;;5094534;28;20438;-72
2021/12/31 03:49:56;;;;;;;0.90;0.40;;;14.10;1.00;;;;;;5094659;28;20487;-75
2021/12/31 03:52:24;;;;;;;0.60;0.10;;;14.10;1.00;;;;;;5094530;28;20501;-75
2021/12/31 03:54:52;;;;;;;0.60;0.10;;;14.10;1.00;;;;;;5093923;28;20948;-74
2021/12/31 03:57:21;;;;;;;0.60;0.10;;;14.10;1.00;;;;;;5085605;28;20445;-74
2021/12/31 03:59:49;;;;;;;0.60;0.10;;;14.10;1.00;;;;;;5094352;28;20442;-75
2021/12/31 04:02:17;;;;;;;0.60;0.10;;;14.10;1.00;;;;;;5118970;22;20842;-74
2021/12/31 04:04:45;;;;;;;0.60;0.10;;;14.10;1.00;;;;;;5116945;27;20449;-74
2021/12/31 04:07:13;;;;;;;0.60;0.10;;;14.10;1.00;;;;;;5114199;28;20439;-73
2021/12/31 04:09:41;;;;;;;0.60;0.10;;;14.10;1.00;;;;;;5114136;28;21002;-73
2021/12/31 04:12:09;;;;;;;0.60;0.10;;;14.10;1.00;;;;;;5114134;28;20468;-73
2021/12/31 04:14:38;;;;;;;0.60;0.10;;;14.10;1.00;;;;;;5114125;27;20463;-73
2021/12/31 04:17:06;;;;;;;0.60;0.10;;;14.10;1.00;;;;;;5093510;28;20431;-73
2021/12/31 04:19:34;;;;;;;0.60;0.10;;;14.10;1.00;;;;;;5096434;28;20961;-73
2021/12/31 04:22:02;;;;;;;0.60;0.10;;;14.00;1.00;;;;;;5113857;28;20455;-74
2021/12/31 04:24:51;;;;;;;0.60;0.10;;;14.00;1.00;;;;;;5114052;28;20545;-74
2021/12/31 04:27:18;;;;;;;0.60;0.10;;;14.00;1.00;;;;;;5093494;28;20444;-75
2021/12/31 04:29:54;;;;;;;0.60;0.10;;;14.00;1.00;;;;;;5093267;28;20536;-73
2021/12/31 04:32:25;;;;;;;0.60;0.20;;;13.90;1.00;;;;;;5093285;28;20469;-73
2021/12/31 04:34:53;;;;;;;0.60;0.10;;;13.90;1.00;;;;;;5109997;27;20454;-72
2021/12/31 04:37:21;;;;;;;0.60;0.10;;;13.90;1.00;;;;;;5113561;28;20445;-74
2021/12/31 04:39:48;;;;;;;0.60;0.10;;;13.80;1.00;;;;;;5113593;28;20828;-73
2021/12/31 04:42:16;;;;;;;0.60;0.10;;;13.80;1.00;;;;;;5113583;28;20461;-72
2021/12/31 04:44:44;;;;;;;0.87;0.63;;;13.80;1.00;;;;;;5113014;27;20449;-74
2021/12/31 04:47:13;;;;;;;0.60;0.10;;;13.70;1.00;;;;;;5113620;28;20445;-74
2021/12/31 04:49:41;;;;;;;0.60;0.10;;;13.70;1.00;;;;;;5113303;28;20484;-73
2021/12/31 04:52:09;;;;;;;0.60;0.10;;;13.60;1.00;;;;;;5113288;28;20456;-73
2021/12/31 04:54:37;;;;;;;0.60;0.10;;;13.60;1.00;;;;;;5126567;27;20968;-73
2021/12/31 04:57:05;;;;;;;0.60;0.20;;;13.60;1.00;;;;;;5133813;27;20463;-72
2021/12/31 04:59:34;;;;;;;1.10;0.50;;;13.60;1.00;;;;;;5129729;27;20444;-72
2021/12/31 05:02:02;;;;;;;0.60;0.10;;;13.50;1.00;;;;;;5113168;28;20459;-72
2021/12/31 05:04:33;;;;;;;0.60;0.10;;;;;;;;;;5113185;28;20449;-72
2021/12/31 05:07:00;;;;;;;0.60;0.10;;;13.50;1.00;;;;;;5112976;28;21114;-73
2021/12/31 05:09:28;;;;;;;0.60;0.10;;;13.50;1.00;;;;;;5113152;27;20481;-73
2021/12/31 05:11:56;;;;;;;0.70;0.30;;;13.50;1.00;;;;;;5113042;28;20432;-72
2021/12/31 05:14:24;;;;;;;0.70;0.43;;;13.50;1.00;;;;;;5112463;28;20453;-72
2021/12/31 05:16:52;;;;;;;0.60;0.10;;;13.50;1.00;;;;;;5112998;28;20562;-72
2021/12/31 05:19:20;;;;;;;0.60;0.10;;;13.50;1.00;;;;;;5112922;28;20447;-72
2021/12/31 05:21:49;;;;;;;2.30;0.97;;;13.40;1.00;;;;;;5131012;27;20446;-73
2021/12/31 05:24:17;;;;;;;0.93;0.70;;;13.40;1.00;;;;;;5133011;27;20439;-75
2021/12/31 05:26:46;;;;;;;0.60;0.30;;;13.40;1.00;;;;;;5133380;27;20502;-75
2021/12/31 05:29:13;;;;;;;0.60;0.10;;;13.40;1.00;;;;;;5132675;27;20487;-73
2021/12/31 05:31:41;;;;;;;1.23;0.87;;;13.40;1.00;;;;;;5115612;27;20452;-74
2021/12/31 05:34:09;;;;;;;0.60;0.10;;;13.40;1.00;;;;;;5104561;28;20456;-73
2021/12/31 05:36:37;;;;;;;0.70;0.40;;;13.40;1.00;;;;;;5112102;28;20452;-72
2021/12/31 05:39:06;;;;;;;0.70;0.50;;;13.40;1.00;;;;;;5100845;28;20939;-72
2021/12/31 05:41:34;;;;;;;0.60;0.10;;;13.40;1.00;;;;;;5112446;28;20538;-72
2021/12/31 05:44:02;;;;;;;0.60;0.10;;;13.40;1.00;;;;;;5111885;28;20461;-76
2021/12/31 05:46:33;;;;;;;0.60;0.10;;;13.40;1.00;;;;;;5112217;28;20440;-75
2021/12/31 05:49:01;;;;;;;0.60;0.30;;;13.50;1.00;;;;;;5112368;28;20465;-73
2021/12/31 05:51:30;;;;;;;0.80;0.50;;;13.40;1.00;;;;;;5112205;28;20946;-72
2021/12/31 05:53:59;;;;;;;0.60;0.10;;;;;;;;;;5112058;28;20457;-75
2021/12/31 05:56:28;;;;;;;0.60;0.30;;;13.50;1.00;;;;;;5112371;28;20451;-73
2021/12/31 05:58:56;;;;;;;0.60;0.10;;;13.40;1.00;;;;;;5112395;28;20452;-72
2021/12/31 06:01:24;;;;;;;0.60;0.10;;;13.40;1.00;;;;;;5112166;28;20450;-72
2021/12/31 06:03:53;;;;;;;0.60;0.20;;;13.40;1.00;;;;;;5109574;28;20484;-74
2021/12/31 06:06:20;;;;;;;0.60;0.10;;;13.30;1.00;;;;;;5112233;28;20440;-73
2021/12/31 06:08:48;;;;;;;0.83;0.20;;;13.30;1.00;;;;;;5118375;28;20449;-72
2021/12/31 06:11:16;;;;;;;3.60;1.47;;;13.30;1.00;;;;;;5133228;28;20483;-72
2021/12/31 06:13:49;;;;;;;0.60;0.10;;;13.30;1.00;;;;;;5133241;28;20470;-71
2021/12/31 06:16:17;;;;;;;0.60;0.10;;;13.30;1.00;;;;;;5134539;28;20447;-73
2021/12/31 06:18:45;;;;;;;0.60;0.10;;;13.30;1.00;;;;;;5115646;28;20933;-73
2021/12/31 06:21:14;;;;;;;0.60;0.10;;;;;;;;;;5094290;28;20524;-73
2021/12/31 06:23:41;;;;;;;0.80;0.40;;;13.30;1.00;;;;;;5093687;28;20461;-72
2021/12/31 06:26:28;;;;;;;0.60;0.10;;;13.30;1.00;;;;;;5095028;28;20437;-73
2021/12/31 06:28:58;;;;;;;0.60;0.10;;;13.30;1.00;;;;;;5108112;27;20444;-73
2021/12/31 06:31:26;;;;;;;0.60;0.20;;;13.30;1.00;;;;;;5136489;27;20474;-73
2021/12/31 06:33:54;;;;;;;0.60;0.10;;;13.30;1.00;;;;;;5136235;27;20508;-72
2021/12/31 06:36:22;;;;;;;1.67;1.23;;;13.30;1.00;;;;;;5136151;27;20964;-72
2021/12/31 06:38:51;;;;;;;0.60;0.10;;;13.30;1.00;;;;;;5129988;27;20446;-75
2021/12/31 06:41:20;;;;;;;0.60;0.10;;;13.30;1.00;;;;;;5106684;28;20470;-72
2021/12/31 06:43:48;;;;;;;0.60;0.10;;;13.20;1.00;;;;;;5115319;28;20460;-73
2021/12/31 06:46:19;;;;;;;0.60;0.10;;;13.20;1.00;;;;;;5115620;28;20819;-72
2021/12/31 06:48:47;;;;;;;0.60;0.10;;;13.20;1.00;;;;;;5114782;27;20530;-73
2021/12/31 06:51:15;;;;;;;0.60;0.20;;;13.10;1.00;;;;;;5114252;28;20479;-72
2021/12/31 06:53:43;;;;;;;1.00;0.83;;;13.00;1.00;;;;;;5115495;28;20465;-73
2021/12/31 06:56:11;;;;;;;1.80;0.47;;;12.90;1.00;;;;;;5115366;28;20543;-72
2021/12/31 06:58:39;;;;;;;0.60;0.10;;;12.90;1.00;;;;;;5118602;27;20456;-72
2021/12/31 07:01:07;;;;;;;4.23;1.33;;;12.90;1.00;;;;;;5135906;27;20443;-72
2021/12/31 07:03:36;;;;;;;0.60;0.20;;;12.80;1.00;;;;;;5135947;27;20489;-72
2021/12/31 07:06:04;;;;;;;0.70;0.43;;;12.80;1.00;;;;;;5135662;27;20439;-71
2021/12/31 07:08:32;;;;;;;0.60;0.10;;;12.80;1.00;;;;;;5133333;27;20543;-73
2021/12/31 07:11:00;;;;;;;0.60;0.10;;;;;;;;;;5115246;28;20571;-72
2021/12/31 07:13:28;;;;;;;0.60;0.10;;;12.80;1.00;;;;;;5114893;28;20459;-73
2021/12/31 07:15:56;;;;;;;0.60;0.10;;;12.80;1.00;;;;;;5115261;28;20464;-74
2021/12/31 07:18:25;;;;;;;0.60;0.10;;;12.70;1.00;;;;;;5115161;27;20923;-75
2021/12/31 07:20:54;;;;;;;0.60;0.10;;;12.70;1.00;;;;;;5114980;28;20437;-73
2021/12/31 07:23:23;;;;;;;0.60;0.10;;;12.70;1.00;;;;;;5115017;28;20463;-73
2021/12/31 07:25:51;;;;;;;0.60;0.10;;;12.70;1.00;;;;;;5114803;28;20439;-74
2021/12/31 07:28:19;;;;;;;1.90;1.80;;;12.70;1.00;;;;;;5114529;28;20439;-74
2021/12/31 07:30:48;;;;;;;0.60;0.10;;;12.70;1.00;;;;;;5114281;28;20524;-73
2021/12/31 07:33:18;;;;;;;0.60;0.10;;;12.70;1.00;;;;;;5114815;28;20525;-73
2021/12/31 07:35:46;;;;;;;0.60;0.10;;;12.70;1.00;;;;;;5114210;28;20436;-73
2021/12/31 07:38:20;;;;;;;0.60;0.10;;;12.70;1.00;;;;;;5114844;28;20440;-73
2021/12/31 07:40:51;;;;;;;0.60;0.20;;;12.60;1.00;;;;;;5114230;28;20433;-72
2021/12/31 07:43:20;;;;;;;0.63;0.20;;;12.60;1.00;;;;;;5114606;28;20540;-72
2021/12/31 07:45:49;;;;;;;0.60;0.10;;;;;;;;;;5114295;28;20482;-72
2021/12/31 07:48:17;;;;;;;0.97;0.97;;;12.60;1.00;;;;;;5114614;28;20436;-75
2021/12/31 07:50:46;;;;;;;0.60;0.10;;;12.60;1.00;;;;;;5134150;27;20826;-74
2021/12/31 07:53:15;;;;;;;0.60;0.20;;;12.50;1.00;;;;;;5135124;27;20498;-73
2021/12/31 07:55:44;;;;;;;0.60;0.10;;;12.50;1.00;;;;;;5135173;27;20506;-73
2021/12/31 07:58:12;;;;;;;0.60;0.20;;;12.50;1.00;;;;;;5134792;27;20443;-73
2021/12/31 08:00:41;;;;;;;0.60;0.10;;;;;;;;;;5115721;27;20443;-74
2021/12/31 08:03:09;;;;;;;0.60;0.10;;;12.50;1.00;;;;;;5114247;28;20500;-72
2021/12/31 08:05:37;;;;;;;0.60;0.20;;;12.50;1.00;;;;;;5115049;27;20447;-73
2021/12/31 08:08:06;;;;;;;49.23;19.77;;;12.50;1.00;;;;;;5114180;28;20444;-74
2021/12/31 08:10:37;;;;;;;0.60;0.10;;;12.40;1.00;;;;;;5113925;28;20545;-74
2021/12/31 08:13:23;;;;;;;0.60;0.10;;;12.40;1.00;;;;;;5114043;28;20461;-74
2021/12/31 08:15:51;;;;;;;0.60;0.10;;;12.40;1.00;;;;;;5121654;27;20451;-74
2021/12/31 08:18:19;;;;;;;0.60;0.10;;;12.40;1.00;;;;;;5134022;27;20855;-72
2021/12/31 08:20:47;;;;;;;0.97;0.87;;;12.40;1.00;;;;;;5134362;27;20441;-73
2021/12/31 08:23:16;;;;;;;0.60;0.10;;;12.50;1.00;;;;;;5134282;27;20455;-72
2021/12/31 08:25:48;;;;;;;0.60;0.10;;;12.50;1.00;;;;;;5127416;27;20451;-73
2021/12/31 08:28:16;;;;;;;0.70;0.40;;;12.40;1.00;;;;;;5113956;28;20443;-74
2021/12/31 08:30:44;;;;;;;0.60;0.10;;;12.40;1.00;;;;;;5113740;28;20477;-73
2021/12/31 08:33:12;;;;;;;0.60;0.10;;;12.50;1.00;;;;;;5114189;28;20460;-79
2021/12/31 08:35:42;;;;;;;0.60;0.10;;;12.60;1.00;;;;;;5120241;27;20443;-73
2021/12/31 08:38:10;;;;;;;0.60;0.10;;;12.60;1.00;;;;;;5133768;27;20515;-73
2021/12/31 08:40:38;;;;;;;0.80;0.40;;;12.60;1.00;;;;;;5134064;27;20846;-73
2021/12/31 08:43:07;;;;;;;0.60;0.10;;;12.60;1.00;;;;;;5133590;27;20462;-72
2021/12/31 08:45:35;;;;;;;1.00;0.53;;;12.70;1.00;;;;;;5128508;27;20958;-73
2021/12/31 08:48:04;;;;;;;0.60;0.10;;;;;;;;;;5117676;27;20497;-74
2021/12/31 08:50:33;;;;;;;0.60;0.13;;;12.60;1.00;;;;;;5112870;28;20436;-74
2021/12/31 08:53:01;;;;;;;0.60;0.10;;;12.70;1.00;;;;;;5112111;28;20483;-74
2021/12/31 08:55:29;;;;;;;0.90;0.57;;;12.70;1.00;;;;;;5130360;27;20455;-76
2021/12/31 08:57:57;;;;;;;0.60;0.10;;;12.60;1.00;;;;;;5129908;27;20455;-75
2021/12/31 09:00:26;;;;;;;0.60;0.30;;;12.60;1.00;;;;;;5113183;28;20440;-73
2021/12/31 09:02:54;;;;;;;0.60;0.10;;;12.60;1.00;;;;;;5112997;28;20495;-75
2021/12/31 09:05:23;;;;;;;0.60;0.10;;;12.60;1.00;;;;;;5112652;28;20440;-73
2021/12/31 09:07:52;;;;;;;0.60;0.10;;;12.60;1.00;;;;;;5114112;27;20498;-74
2021/12/31 09:10:20;;;;;;;0.60;0.10;;;12.60;1.00;;;;;;5133284;27;20438;-74
2021/12/31 09:12:50;;;;;;;0.60;0.10;;;12.70;1.00;;;;;;5127872;27;20566;-75
2021/12/31 09:15:18;;;;;;;0.60;0.10;;;12.70;1.00;;;;;;5112008;28;20446;-74
2021/12/31 09:17:49;;;;;;;0.60;0.10;;;12.70;1.00;;;;;;5112665;27;20820;-75
2021/12/31 09:20:17;;;;;;;0.60;0.33;;;12.70;1.00;;;;;;5112967;28;20428;-74
2021/12/31 09:22:46;;;;;;;0.60;0.10;;;12.70;1.00;;;;;;5113239;28;20548;-74
2021/12/31 09:25:15;;;;;;;1.33;0.83;;;11.70;1.00;;;;;;5112682;28;20420;-74
2021/12/31 09:27:43;;;;;;;0.60;0.10;;;;;;;;;;5113292;28;20439;-75
2021/12/31 09:30:12;;;;;;;0.60;0.10;;;12.70;1.00;;;;;;5133011;27;20903;-73
2021/12/31 09:32:40;;;;;;;0.60;0.10;;;12.70;1.00;;;;;;5133074;27;21120;-74
2021/12/31 09:35:10;;;;;;;4.30;1.03;;;12.80;1.00;;;;;;5133211;27;20439;-73
2021/12/31 09:37:38;;;;;;;0.60;0.10;;;12.80;1.00;;;;;;5133234;27;20452;-75
2021/12/31 09:40:07;;;;;;;0.60;0.10;;;12.80;1.00;;;;;;5132839;27;20522;-75
2021/12/31 09:42:38;;;;;;;0.60;0.10;;;12.90;1.00;;;;;;5132646;27;20456;-73
2021/12/31 09:45:08;;;;;;;0.60;0.10;;;12.90;1.00;;;;;;5133179;27;20443;-74
2021/12/31 09:47:36;;;;;;;0.60;0.10;;;13.00;1.00;;;;;;5132734;27;20434;-73
2021/12/31 09:50:05;;;;;;;0.60;0.10;;;13.00;1.00;;;;;;5132037;27;20448;-73
2021/12/31 09:52:35;;;;;;;0.60;0.10;;;13.10;1.00;;;;;;5132712;27;20487;-76
2021/12/31 09:55:09;;;;;;;0.70;0.30;;;13.10;1.00;;;;;;5132765;27;20519;-74
2021/12/31 09:57:37;;;;;;;0.60;0.10;;;13.20;1.00;;;;;;5132498;28;20528;-74
2021/12/31 10:00:07;;;;;;;0.60;0.10;;;13.20;1.00;;;;;;5098166;28;20452;-75
2021/12/31 10:02:35;;;;;;;0.60;0.10;;;13.30;1.00;;;;;;5098548;28;20476;-76
2021/12/31 10:05:04;;;;;;;0.60;0.20;;;13.30;1.00;;;;;;5098180;28;20820;-75
2021/12/31 10:07:34;;;;;;;0.60;0.10;;;13.40;1.00;;;;;;5098747;28;20466;-74
2021/12/31 10:10:14;;;;;;;1.43;0.60;;;13.40;1.00;;;;;;5112914;27;20448;-74
2021/12/31 10:12:49;;;;;;;0.60;0.13;;;13.40;1.00;;;;;;5135051;22;20481;-76
2021/12/31 10:15:20;;;;;;;3.53;0.90;;;13.30;1.00;;;;;;5114403;28;20527;-77
2021/12/31 10:17:48;;;;;;;0.60;0.10;;;13.30;1.00;;;;;;5123560;28;20441;-77
2021/12/31 10:20:17;;;;;;;0.60;0.10;;;13.20;1.00;;;;;;5139751;27;20454;-76
2021/12/31 10:22:47;;;;;;;0.60;0.10;;;13.30;1.00;;;;;;5126490;27;20642;-77
2021/12/31 10:25:20;;;;;;;0.60;0.10;;;13.30;1.00;;;;;;5116517;28;20458;-77
2021/12/31 10:27:50;;;;;;;0.60;0.10;;;13.40;1.00;;;;;;5118263;28;20440;-76
2021/12/31 10:30:26;;;;;;;0.60;0.10;;;13.50;1.00;;;;;;5123270;27;20461;-77
2021/12/31 10:32:54;;;;;;;0.60;0.10;;;13.50;1.00;;;;;;5117768;28;20487;-78
2021/12/31 10:35:23;;;;;;;0.60;0.10;;;13.60;1.00;;;;;;5120465;28;20573;-76
2021/12/31 10:37:57;;;;;;;0.60;0.20;;;13.60;1.00;;;;;;5124100;28;20469;-77
2021/12/31 10:40:30;;;;;;;0.60;0.10;;;13.70;1.00;;;;;;5106302;28;20970;-78
2021/12/31 10:43:15;;;;;;;0.60;0.10;;;13.60;1.00;;;;;;5102587;28;20469;-78
2021/12/31 10:45:57;;;;;;;1.67;0.70;;;13.60;1.00;;;;;;5109616;28;20437;-77
2021/12/31 10:48:39;;;;;;;1.70;0.80;;;13.60;1.00;;;;;;5110394;27;20450;-78
2021/12/31 10:51:08;;;;;;;0.60;0.10;;;13.50;1.00;;;;;;5124794;28;20962;-77
2021/12/31 10:53:37;;;;;;;0.70;0.27;;;13.50;1.00;;;;;;5112007;28;20550;-78
2021/12/31 10:56:08;;;;;;;0.87;0.40;;;13.50;1.00;;;;;;5112365;28;20443;-78
2021/12/31 10:58:36;;;;;;;2.87;2.67;;;13.50;1.00;;;;;;5122690;27;20445;-79
2021/12/31 11:01:07;;;;;;;1.43;0.73;;;13.50;1.00;;;;;;5116384;28;20445;-80
2021/12/31 11:03:36;;;;;;;0.70;0.40;;;13.50;1.00;;;;;;5132233;27;20638;-78
2021/12/31 11:06:07;;;;;;;0.60;0.10;;;13.60;1.00;;;;;;5130219;27;20782;-77
2021/12/31 11:08:36;;;;;;;0.60;0.20;;;13.60;1.00;;;;;;5125948;28;20451;-78
2021/12/31 11:11:05;;;;;;;2.33;1.73;;;13.60;1.00;;;;;;5122975;28;20444;-79
2021/12/31 11:13:33;;;;;;;0.60;0.10;;;13.60;1.00;;;;;;5119782;27;20507;-78
2021/12/31 11:16:01;;;;;;;0.60;0.10;;;13.50;1.00;;;;;;5120221;28;20450;-78
2021/12/31 11:18:29;;;;;;;0.60;0.10;;;13.70;1.00;;;;;;5128301;28;20976;-77
2021/12/31 11:21:01;;;;;;;0.60;0.10;;;13.80;1.00;;;;;;5128813;28;20821;-78
2021/12/31 11:23:31;;;;;;;0.60;0.10;;;13.80;1.00;;;;;;5126889;27;21008;-77
2021/12/31 11:26:04;;;;;;;0.60;0.10;;;13.90;1.00;;;;;;5139214;27;21007;-78
2021/12/31 11:28:33;;;;;;;0.60;0.10;;;13.90;1.00;;;;;;5139734;27;20444;-78
2021/12/31 11:31:23;;;;;;;0.60;0.10;;;14.00;1.00;;;;;;5125244;27;20445;-77
2021/12/31 11:34:14;;;;;;;0.60;0.10;;;14.00;1.00;;;;;;5134502;27;20844;-77
2021/12/31 11:36:44;;;;;;;0.60;0.10;;;14.00;1.00;;;;;;5144977;27;20834;-78
2021/12/31 11:39:18;;;;;;;0.60;0.10;;;14.00;1.00;;;;;;5131292;27;20445;-79
2021/12/31 11:41:53;;;;;;;0.60;0.10;;;14.10;1.00;;;;;;5119735;28;20490;-78
2021/12/31 11:44:24;;;;;;;0.60;0.43;;;14.10;1.00;;;;;;5131076;27;20440;-77
2021/12/31 11:47:12;;;;;;;0.60;0.10;;;14.10;1.00;;;;;;5124483;27;20445;-78
2021/12/31 11:49:40;;;;;;;0.60;0.20;;;14.10;1.00;;;;;;5134360;27;20459;-78
2021/12/31 11:52:11;;;;;;;0.60;0.20;;;14.10;1.00;;;;;;5140904;27;20472;-78
2021/12/31 11:54:42;;;;;;;0.60;0.10;;;14.10;1.00;;;;;;5124394;27;20444;-78
2021/12/31 11:57:16;;;;;;;0.60;0.10;;;14.10;1.00;;;;;;5120650;27;20446;-80
2021/12/31 11:59:53;;;;;;;0.60;0.10;;;14.10;1.00;;;;;;5121464;28;20845;-79
2021/12/31 12:02:40;;;;;;;0.70;0.30;;;14.20;1.00;;;;;;5119436;28;20531;-77
2021/12/31 12:05:14;;;;;;;3.60;1.07;;;14.20;1.00;;;;;;5130665;28;20467;-78
2021/12/31 12:07:52;;;;;;;0.60;0.10;;;14.10;1.00;;;;;;5122904;27;20459;-75
2021/12/31 12:10:25;;;;;;;0.60;0.10;;;14.10;1.00;;;;;;5110659;28;20456;-77
2021/12/31 12:12:57;;;;;;;0.80;0.60;;;14.10;1.00;;;;;;5115396;28;20481;-78
2021/12/31 12:15:33;;;;;;;0.60;0.10;;;14.10;1.00;;;;;;5120332;28;20511;-78
2021/12/31 12:18:06;;;;;;;0.60;0.10;;;14.10;1.00;;;;;;5113428;27;20478;-79
2021/12/31 12:20:41;;;;;;;0.70;0.30;;;14.00;1.00;;;;;;5105844;28;20838;-78
2021/12/31 12:23:21;;;;;;;0.60;0.10;;;14.00;1.00;;;;;;5111015;28;20535;-77
2021/12/31 12:25:49;;;;;;;8.43;3.97;;;14.00;1.00;;;;;;5101392;28;20448;-78
2021/12/31 12:28:20;;;;;;;0.60;0.10;;;14.10;1.00;;;;;;5136986;27;20448;-78
2021/12/31 12:31:03;;;;;;;1.00;0.40;;;14.10;1.00;;;;;;5141549;27;20956;-79
2021/12/31 12:33:31;;;;;;;0.60;0.10;;;14.10;1.00;;;;;;5137270;27;20570;-78
2021/12/31 12:36:01;;;;;;;4.80;4.37;;;14.30;1.00;;;;;;5140027;27;20458;-78
2021/12/31 12:38:33;;;;;;;2.13;0.50;;;14.30;1.00;;;;;;5120029;27;20518;-79
2021/12/31 12:41:02;;;;;;;0.60;0.20;;;14.30;1.00;;;;;;5117660;28;20895;-79
2021/12/31 12:43:33;;;;;;;1.50;1.07;;;14.30;1.00;;;;;;5117668;28;20473;-78
2021/12/31 12:46:02;;;;;;;0.60;0.10;;;14.20;1.00;;;;;;5109901;28;20444;-78
2021/12/31 12:48:35;;;;;;;0.60;0.10;;;14.20;1.00;;;;;;5118220;27;20460;-79
2021/12/31 12:51:05;;;;;;;0.60;0.20;;;14.30;1.00;;;;;;5118852;28;20428;-79
2021/12/31 12:53:34;;;;;;;0.60;0.10;;;14.30;1.00;;;;;;5118630;28;20561;-79
2021/12/31 12:56:07;;;;;;;0.60;0.10;;;14.40;1.00;;;;;;5121863;28;20436;-77
2021/12/31 12:58:39;;;;;;;0.60;0.10;;;14.30;1.00;;;;;;5130410;28;20436;-79
2021/12/31 13:01:08;;;;;;;0.60;0.10;;;14.30;1.00;;;;;;5119476;28;20454;-79
2021/12/31 13:03:53;;;;;;;0.60;0.10;;;14.30;1.00;;;;;;5119212;28;20532;-78
2021/12/31 13:06:26;;;;;;;0.60;0.10;;;14.30;1.00;;;;;;5105104;28;20979;-79
2021/12/31 13:09:07;;;;;;;0.60;0.10;;;14.30;1.00;;;;;;5111356;27;20453;-78
2021/12/31 13:11:38;;;;;;;0.60;0.10;;;14.30;1.00;;;;;;5104778;28;20491;-78
2021/12/31 13:14:14;;;;;;;0.60;0.10;;;14.30;1.00;;;;;;5105308;28;20477;-78
2021/12/31 13:16:43;;;;;;;0.60;0.10;;;14.30;1.00;;;;;;5112251;28;20455;-78